createdAt,value
2019-05-18T00:02:20.723Z,13.30
2019-05-18T00:04:48.596Z,10.93
2019-05-18T00:07:16.560Z,11.30
2019-05-18T00:09:44.432Z,10.10
2019-05-18T00:12:12.461Z,10.10
2019-05-18T00:14:40.419Z,11.20
2019-05-18T00:17:23.195Z,9.70
2019-05-18T00:19:38.204Z,10.00
2019-05-18T00:22:06.078Z,10.58
2019-05-18T00:24:33.999Z,11.80
2019-05-18T00:27:02.027Z,10.37
2019-05-18T00:29:30.005Z,10.10
2019-05-18T00:31:57.963Z,10.20
2019-05-18T00:34:25.916Z,11.12
2019-05-18T00:36:53.797Z,10.82
2019-05-18T00:39:21.731Z,9.38
2019-05-18T00:41:49.675Z,10.70
2019-05-18T00:44:17.672Z,9.77
2019-05-18T00:46:45.622Z,9.87
2019-05-18T00:49:14.153Z,9.70
2019-05-18T00:51:42.475Z,10.77
2019-05-18T00:54:10.438Z,10.58
2019-05-18T00:56:38.335Z,12.88
2019-05-18T00:59:06.367Z,11.15
2019-05-18T01:01:34.418Z,11.18
2019-05-18T01:04:02.485Z,10.82
2019-05-18T01:06:30.357Z,10.45
2019-05-18T01:09:11.998Z,10.18
2019-05-18T01:11:39.861Z,11.63
2019-05-18T01:14:07.849Z,15.32
2019-05-18T01:16:41.442Z,11.83
2019-05-18T01:19:09.360Z,12.23
2019-05-18T01:21:37.273Z,11.25
2019-05-18T01:24:06.198Z,11.50
2019-05-18T01:26:34.120Z,11.90
2019-05-18T01:29:04.420Z,13.08
2019-05-18T01:31:32.527Z,13.60
2019-05-18T01:34:00.495Z,11.90
2019-05-18T01:36:28.384Z,12.47
2019-05-18T01:38:56.264Z,11.33
2019-05-18T01:41:24.116Z,11.73
2019-05-18T01:43:51.997Z,12.37
2019-05-18T01:46:19.882Z,12.25
2019-05-18T01:48:47.760Z,11.70
2019-05-18T01:51:15.668Z,12.03
2019-05-18T01:53:43.584Z,11.63
2019-05-18T01:56:11.498Z,10.78
2019-05-18T01:58:39.377Z,10.60
2019-05-18T02:01:07.224Z,10.98
2019-05-18T02:03:35.119Z,11.10
2019-05-18T02:06:03.001Z,10.35
2019-05-18T02:08:30.900Z,14.03
2019-05-18T02:10:58.818Z,11.50
2019-05-18T02:13:29.220Z,9.80
2019-05-18T02:16:00.324Z,10.68
2019-05-18T02:18:29.390Z,10.20
2019-05-18T02:20:57.940Z,9.68
2019-05-18T02:23:27.002Z,9.67
2019-05-18T02:25:54.932Z,10.32
2019-05-18T02:28:22.795Z,10.97
2019-05-18T02:30:50.669Z,10.73
2019-05-18T02:33:18.548Z,12.50
2019-05-18T02:35:46.394Z,12.30
2019-05-18T02:38:15.279Z,11.70
2019-05-18T02:40:43.978Z,10.58
2019-05-18T02:43:11.834Z,10.65
2019-05-18T02:45:40.024Z,11.83
2019-05-18T02:48:07.812Z,11.30
2019-05-18T02:50:35.710Z,10.70
2019-05-18T02:53:03.927Z,11.12
2019-05-18T02:55:31.969Z,10.20
2019-05-18T02:57:59.783Z,11.25
2019-05-18T03:00:27.635Z,10.25
2019-05-18T03:02:55.513Z,10.70
2019-05-18T03:05:23.889Z,13.38
2019-05-18T03:07:51.743Z,13.38
2019-05-18T03:10:19.799Z,17.45
2019-05-18T03:12:47.894Z,19.05
2019-05-18T03:15:16.163Z,16.42
2019-05-18T03:17:44.017Z,14.70
2019-05-18T03:20:12.084Z,17.15
2019-05-18T03:22:39.960Z,17.07
2019-05-18T03:25:08.161Z,18.27
2019-05-18T03:27:36.178Z,18.10
2019-05-18T03:30:04.200Z,20.45
2019-05-18T03:32:32.094Z,17.98
2019-05-18T03:34:59.946Z,18.27
2019-05-18T03:37:27.838Z,17.90
2019-05-18T03:39:55.838Z,20.55
2019-05-18T03:42:23.703Z,18.27
2019-05-18T03:44:51.649Z,19.77
2019-05-18T03:47:19.586Z,16.25
2019-05-18T03:49:47.485Z,16.50
2019-05-18T03:52:15.390Z,16.02
2019-05-18T03:54:43.278Z,15.55
2019-05-18T03:57:11.123Z,20.10
2019-05-18T03:59:39.008Z,17.32
2019-05-18T04:02:06.867Z,14.15
2019-05-18T04:04:34.731Z,17.17
2019-05-18T04:07:02.552Z,15.18
2019-05-18T04:09:30.456Z,14.38
2019-05-18T04:11:58.345Z,16.57
2019-05-18T04:14:26.218Z,15.00
2019-05-18T04:16:56.502Z,17.40
2019-05-18T04:19:42.649Z,24.93
2019-05-18T04:22:14.442Z,16.67
2019-05-18T04:24:42.326Z,18.45
2019-05-18T04:27:10.271Z,16.23
2019-05-18T04:29:39.623Z,20.82
2019-05-18T04:32:07.763Z,14.78
2019-05-18T04:34:35.636Z,16.35
2019-05-18T04:37:03.477Z,15.53
2019-05-18T04:39:31.442Z,14.40
2019-05-18T04:41:59.392Z,15.10
2019-05-18T04:44:27.249Z,15.03
2019-05-18T04:46:55.140Z,15.93
2019-05-18T04:49:22.992Z,15.10
2019-05-18T04:51:50.857Z,19.10
2019-05-18T04:54:18.778Z,15.18
2019-05-18T04:56:46.776Z,18.10
2019-05-18T04:59:14.665Z,17.03
2019-05-18T05:01:42.710Z,15.93
2019-05-18T05:04:10.625Z,14.57
2019-05-18T05:06:38.573Z,15.80
2019-05-18T05:09:07.352Z,14.57
2019-05-18T05:11:35.354Z,14.80
2019-05-18T05:14:03.927Z,14.90
2019-05-18T05:16:31.891Z,14.70
2019-05-18T05:18:59.853Z,15.17
2019-05-18T05:21:27.784Z,14.53
2019-05-18T05:23:55.628Z,12.73
2019-05-18T05:26:23.677Z,12.77
2019-05-18T05:28:51.565Z,15.20
2019-05-18T05:31:19.559Z,14.33
2019-05-18T05:33:47.458Z,12.50
2019-05-18T05:36:15.485Z,11.50
2019-05-18T05:38:43.400Z,14.67
2019-05-18T05:41:16.527Z,12.60
2019-05-18T05:43:41.166Z,10.87
2019-05-18T05:46:09.098Z,18.40
2019-05-18T05:48:37.000Z,13.43
2019-05-18T05:51:04.874Z,13.33
2019-05-18T05:53:33.074Z,13.57
2019-05-18T05:56:00.918Z,12.93
2019-05-18T05:58:28.897Z,12.43
2019-05-18T06:00:56.740Z,13.00
2019-05-18T06:03:24.608Z,13.87
2019-05-18T06:05:52.558Z,14.10
2019-05-18T06:08:20.936Z,11.63
2019-05-18T06:10:48.911Z,12.37
2019-05-18T06:13:16.930Z,14.00
2019-05-18T06:15:44.778Z,13.90
2019-05-18T06:18:12.655Z,11.17
2019-05-18T06:20:51.025Z,11.60
2019-05-18T06:23:10.522Z,13.40
2019-05-18T06:25:41.683Z,15.47
2019-05-18T06:28:09.666Z,11.57
2019-05-18T06:30:37.593Z,11.73
2019-05-18T06:33:05.465Z,11.33
2019-05-18T06:35:33.334Z,10.57
2019-05-18T06:38:01.233Z,9.73
2019-05-18T06:40:29.218Z,12.00
2019-05-18T06:42:57.180Z,10.53
2019-05-18T06:45:25.089Z,10.63
2019-05-18T06:47:52.974Z,9.90
2019-05-18T06:50:29.041Z,11.47
2019-05-18T06:52:57.957Z,9.80
2019-05-18T06:55:26.546Z,10.27
2019-05-18T06:57:56.748Z,11.60
2019-05-18T07:00:24.806Z,9.80
2019-05-18T07:02:52.684Z,10.10
2019-05-18T07:05:21.860Z,9.37
2019-05-18T07:07:50.562Z,9.57
2019-05-18T07:10:18.429Z,9.50
2019-05-18T07:12:47.361Z,8.80
2019-05-18T07:15:16.185Z,9.13
2019-05-18T07:17:44.596Z,9.40
2019-05-18T07:20:15.907Z,9.90
2019-05-18T07:22:43.972Z,8.30
2019-05-18T07:25:12.571Z,8.00
2019-05-18T07:27:40.569Z,7.03
2019-05-18T07:30:09.704Z,8.23
2019-05-18T07:32:37.753Z,7.50
2019-05-18T07:35:06.487Z,7.30
2019-05-18T07:37:34.604Z,7.53
2019-05-18T07:40:02.689Z,8.33
2019-05-18T07:42:30.685Z,7.90
2019-05-18T07:44:58.631Z,8.03
2019-05-18T07:47:26.670Z,7.10
2019-05-18T07:49:55.265Z,8.23
2019-05-18T07:52:23.363Z,7.83
2019-05-18T07:54:52.361Z,7.47
2019-05-18T07:57:20.468Z,8.30
2019-05-18T07:59:49.831Z,13.53
2019-05-18T08:02:17.974Z,6.77
2019-05-18T08:04:45.991Z,7.50
2019-05-18T08:07:14.056Z,6.67
2019-05-18T08:09:42.038Z,6.07
2019-05-18T08:12:10.030Z,8.37
2019-05-18T08:14:38.069Z,7.53
2019-05-18T08:17:06.179Z,7.63
2019-05-18T08:19:34.155Z,7.00
2019-05-18T08:22:02.342Z,6.80
2019-05-18T08:24:30.328Z,6.53
2019-05-18T08:27:01.826Z,9.93
2019-05-18T08:29:28.324Z,6.43
2019-05-18T08:31:56.396Z,7.60
2019-05-18T08:34:24.436Z,7.87
2019-05-18T08:36:53.481Z,7.70
2019-05-18T08:39:21.655Z,7.37
2019-05-18T08:41:49.725Z,9.00
2019-05-18T08:44:17.765Z,9.17
2019-05-18T08:46:45.713Z,6.37
2019-05-18T08:49:13.798Z,6.33
2019-05-18T08:51:42.937Z,6.03
2019-05-18T08:54:11.975Z,6.33
2019-05-18T08:56:40.024Z,7.53
2019-05-18T08:59:08.275Z,6.27
2019-05-18T09:01:36.293Z,6.07
2019-05-18T09:04:04.463Z,5.63
2019-05-18T09:06:32.566Z,8.07
2019-05-18T09:09:00.757Z,5.70
2019-05-18T09:11:28.996Z,6.40
2019-05-18T09:13:57.076Z,5.60
2019-05-18T09:16:25.575Z,5.27
2019-05-18T09:18:53.730Z,6.43
2019-05-18T09:21:21.845Z,6.13
2019-05-18T09:23:50.032Z,6.57
2019-05-18T09:26:18.239Z,5.43
2019-05-18T09:28:48.224Z,5.40
2019-05-18T09:31:16.299Z,6.23
2019-05-18T09:33:44.309Z,6.40
2019-05-18T09:36:12.413Z,5.87
2019-05-18T09:38:40.400Z,6.37
2019-05-18T09:41:08.492Z,5.37
2019-05-18T09:43:36.657Z,6.10
2019-05-18T09:46:04.749Z,6.57
2019-05-18T09:48:32.946Z,6.30
2019-05-18T09:51:01.069Z,5.17
2019-05-18T09:53:30.151Z,5.70
2019-05-18T09:55:58.233Z,5.17
2019-05-18T09:58:26.252Z,7.93
2019-05-18T10:00:54.402Z,4.90
2019-05-18T10:03:22.348Z,4.67
2019-05-18T10:05:50.310Z,4.90
2019-05-18T10:08:18.334Z,3.90
2019-05-18T10:10:51.035Z,4.00
2019-05-18T10:13:18.994Z,3.90
2019-05-18T10:15:46.959Z,3.53
2019-05-18T10:18:14.931Z,3.93
2019-05-18T10:20:42.951Z,4.23
2019-05-18T10:23:13.689Z,4.57
2019-05-18T10:25:40.716Z,4.17
2019-05-18T10:28:08.686Z,4.60
2019-05-18T10:30:36.698Z,3.97
2019-05-18T10:33:04.868Z,3.70
2019-05-18T10:35:32.819Z,3.53
2019-05-18T10:38:00.824Z,4.00
2019-05-18T10:40:28.748Z,3.50
2019-05-18T10:42:56.870Z,3.97
2019-05-18T10:45:24.818Z,4.23
2019-05-18T10:47:52.729Z,4.03
2019-05-18T10:50:21.716Z,4.47
2019-05-18T10:52:49.692Z,3.73
2019-05-18T10:55:17.861Z,3.33
2019-05-18T10:57:45.885Z,2.90
2019-05-18T11:00:14.623Z,3.70
2019-05-18T11:02:42.647Z,3.37
2019-05-18T11:05:11.250Z,3.77
2019-05-18T11:07:39.145Z,3.03
2019-05-18T11:10:08.126Z,3.00
2019-05-18T11:12:36.108Z,4.10
2019-05-18T11:15:04.607Z,2.70
2019-05-18T11:17:32.793Z,4.57
2019-05-18T11:20:00.913Z,3.90
2019-05-18T11:22:28.930Z,3.00
2019-05-18T11:24:56.948Z,3.40
2019-05-18T11:27:24.956Z,4.20
2019-05-18T11:29:53.508Z,3.77
2019-05-18T11:32:21.492Z,3.23
2019-05-18T11:34:49.479Z,3.33
2019-05-18T11:37:17.538Z,3.83
2019-05-18T11:39:45.529Z,4.80
2019-05-18T11:42:16.091Z,4.07
2019-05-18T11:44:44.280Z,3.20
2019-05-18T11:47:12.316Z,3.93
2019-05-18T11:49:40.385Z,3.30
2019-05-18T11:52:08.975Z,3.60
2019-05-18T11:54:37.661Z,7.63
2019-05-18T11:57:05.930Z,3.63
2019-05-18T11:59:34.793Z,3.60
2019-05-18T12:02:04.562Z,3.63
2019-05-18T12:04:32.717Z,3.77
2019-05-18T12:07:18.080Z,3.30
2019-05-18T12:09:46.075Z,3.60
2019-05-18T12:12:14.121Z,3.60
2019-05-18T12:14:42.147Z,4.30
2019-05-18T12:17:10.150Z,3.80
2019-05-18T12:19:38.105Z,3.93
2019-05-18T12:22:06.376Z,2.87
2019-05-18T12:24:34.482Z,3.70
2019-05-18T12:27:02.531Z,3.07
2019-05-18T12:29:30.553Z,3.83
2019-05-18T12:31:58.820Z,3.07
2019-05-18T12:34:27.029Z,2.80
2019-05-18T12:36:55.155Z,3.77
2019-05-18T12:39:23.244Z,4.47
2019-05-18T12:41:51.252Z,3.37
2019-05-18T12:44:19.241Z,3.17
2019-05-18T12:46:47.548Z,3.03
2019-05-18T12:49:15.790Z,3.13
2019-05-18T12:51:43.795Z,2.80
2019-05-18T12:54:11.752Z,3.07
2019-05-18T12:56:40.140Z,3.37
2019-05-18T12:59:08.326Z,2.73
2019-05-18T13:01:36.374Z,3.20
2019-05-18T13:04:04.371Z,3.13
2019-05-18T13:06:32.383Z,3.83
2019-05-18T13:09:00.432Z,3.17
2019-05-18T13:11:28.387Z,3.23
2019-05-18T13:13:56.374Z,3.63
2019-05-18T13:16:24.356Z,3.80
2019-05-18T13:18:52.265Z,3.00
2019-05-18T13:21:20.212Z,3.07
2019-05-18T13:23:48.188Z,2.83
2019-05-18T13:26:16.148Z,3.00
2019-05-18T13:28:44.525Z,3.60
2019-05-18T13:31:12.526Z,3.10
2019-05-18T13:33:40.598Z,5.13
2019-05-18T13:36:08.727Z,2.50
2019-05-18T13:38:36.845Z,2.87
2019-05-18T13:41:04.870Z,2.60
2019-05-18T13:43:32.910Z,3.03
2019-05-18T13:46:00.913Z,2.77
2019-05-18T13:48:28.919Z,3.27
2019-05-18T13:50:57.023Z,2.20
2019-05-18T13:53:25.185Z,2.97
2019-05-18T13:55:53.266Z,3.57
2019-05-18T13:58:21.333Z,2.23
2019-05-18T14:00:49.566Z,2.30
2019-05-18T14:03:18.730Z,2.50
2019-05-18T14:05:46.837Z,2.50
2019-05-18T14:08:15.958Z,3.07
2019-05-18T14:10:44.234Z,2.40
2019-05-18T14:13:12.504Z,2.83
2019-05-18T14:15:40.551Z,5.27
2019-05-18T14:18:08.635Z,3.27
2019-05-18T14:20:36.883Z,3.43
2019-05-18T14:23:04.975Z,3.13
2019-05-18T14:25:32.925Z,2.53
2019-05-18T14:28:01.002Z,2.90
2019-05-18T14:30:29.134Z,3.87
2019-05-18T14:32:57.970Z,3.10
2019-05-18T14:35:26.455Z,2.60
2019-05-18T14:37:54.752Z,3.10
2019-05-18T14:40:23.929Z,3.20
2019-05-18T14:42:52.067Z,2.40
2019-05-18T14:45:20.369Z,2.63
2019-05-18T14:47:48.535Z,3.10
2019-05-18T14:50:19.098Z,2.43
2019-05-18T14:52:47.128Z,2.90
2019-05-18T14:55:16.845Z,2.17
2019-05-18T14:57:45.104Z,2.97
2019-05-18T15:00:14.005Z,2.70
2019-05-18T15:02:42.388Z,2.57
2019-05-18T15:05:12.803Z,2.70
2019-05-18T15:07:40.844Z,3.40
2019-05-18T15:10:09.595Z,3.30
2019-05-18T15:12:38.097Z,2.93
2019-05-18T15:15:10.682Z,3.10
2019-05-18T15:17:39.836Z,2.50
2019-05-18T15:20:08.988Z,2.37
2019-05-18T15:22:37.031Z,2.50
2019-05-18T15:25:05.971Z,2.63
2019-05-18T15:27:35.035Z,3.03
2019-05-18T15:30:04.171Z,3.83
2019-05-18T15:32:33.194Z,3.30
2019-05-18T15:35:01.838Z,3.73
2019-05-18T15:37:30.461Z,6.43
2019-05-18T15:39:59.625Z,2.80
2019-05-18T15:42:27.717Z,4.30
2019-05-18T15:44:55.873Z,3.73
2019-05-18T15:47:24.188Z,4.70
2019-05-18T15:49:52.381Z,4.47
2019-05-18T15:52:20.501Z,3.13
2019-05-18T15:54:48.588Z,3.80
2019-05-18T15:57:16.519Z,3.30
2019-05-18T15:59:45.101Z,3.47
2019-05-18T16:02:13.646Z,4.43
2019-05-18T16:04:42.397Z,3.87
2019-05-18T16:07:10.621Z,3.83
2019-05-18T16:09:40.307Z,4.27
2019-05-18T16:12:08.545Z,3.47
2019-05-18T16:14:36.715Z,3.40
2019-05-18T16:17:05.983Z,4.13
2019-05-18T16:19:34.096Z,3.83
2019-05-18T16:22:03.077Z,3.30
2019-05-18T16:24:31.381Z,3.70
2019-05-18T16:27:01.635Z,5.30
2019-05-18T16:29:30.344Z,3.90
2019-05-18T16:31:58.626Z,4.00
2019-05-18T16:34:26.820Z,3.43
2019-05-18T16:36:55.563Z,3.37
2019-05-18T16:39:23.710Z,3.53
2019-05-18T16:41:52.759Z,5.67
2019-05-18T16:44:21.717Z,3.73
2019-05-18T16:46:49.984Z,3.00
2019-05-18T16:49:18.551Z,4.57
2019-05-18T16:51:46.995Z,5.23
2019-05-18T16:54:15.458Z,4.27
2019-05-18T16:56:44.459Z,3.83
2019-05-18T16:59:12.513Z,3.33
2019-05-18T17:01:40.753Z,5.77
2019-05-18T17:04:09.673Z,4.57
2019-05-18T17:06:39.902Z,3.60
2019-05-18T17:09:09.401Z,4.03
2019-05-18T17:11:37.950Z,4.70
2019-05-18T17:14:06.394Z,3.80
2019-05-18T17:16:35.338Z,4.47
2019-05-18T17:19:04.133Z,3.60
2019-05-18T17:21:33.403Z,3.17
2019-05-18T17:24:01.821Z,3.13
2019-05-18T17:26:30.061Z,4.60
2019-05-18T17:28:58.946Z,4.00
2019-05-18T17:31:29.820Z,4.07
2019-05-18T17:34:00.585Z,3.90
2019-05-18T17:36:28.619Z,4.67
2019-05-18T17:38:56.932Z,3.50
2019-05-18T17:41:25.516Z,5.23
2019-05-18T17:43:53.522Z,4.30
2019-05-18T17:46:21.764Z,3.57
2019-05-18T17:48:50.185Z,2.90
2019-05-18T17:51:21.308Z,2.70
2019-05-18T17:53:49.468Z,3.53
2019-05-18T17:56:18.517Z,3.60
2019-05-18T17:58:46.694Z,4.60
2019-05-18T18:01:15.728Z,6.20
2019-05-18T18:03:43.796Z,6.50
2019-05-18T18:06:12.552Z,5.93
2019-05-18T18:17:48.433Z,7.03
2019-05-18T18:20:18.064Z,8.10
2019-05-18T18:28:42.760Z,5.70
2019-05-18T18:31:11.049Z,5.80
2019-05-18T18:33:39.199Z,3.93
2019-05-18T18:36:07.235Z,4.87
2019-05-18T18:38:35.399Z,5.87
2019-05-18T18:41:03.398Z,4.93
2019-05-18T18:43:31.555Z,3.67
2019-05-18T18:45:59.574Z,6.30
2019-05-18T18:48:27.801Z,4.73
2019-05-18T18:50:56.137Z,4.17
2019-05-18T18:53:26.242Z,2.70
2019-05-18T18:55:54.316Z,2.77
2019-05-18T18:58:22.520Z,2.13
2019-05-18T19:00:50.493Z,2.50
2019-05-18T19:03:19.981Z,2.30
2019-05-18T19:05:48.040Z,2.33
2019-05-18T19:08:16.063Z,3.37
2019-05-18T19:10:44.119Z,2.53
2019-05-18T19:13:12.222Z,2.90
2019-05-18T19:15:40.239Z,3.00
2019-05-18T19:18:09.352Z,4.90
2019-05-18T19:20:37.317Z,2.63
2019-05-18T19:23:05.368Z,2.40
2019-05-18T19:25:33.346Z,2.87
2019-05-18T19:28:01.454Z,2.00
2019-05-18T19:30:29.570Z,1.93
2019-05-18T19:32:57.616Z,2.77
2019-05-18T19:35:25.611Z,2.30
2019-05-18T19:37:53.929Z,2.37
2019-05-18T19:40:21.903Z,2.63
2019-05-18T19:42:50.407Z,2.50
2019-05-18T19:45:20.113Z,2.30
2019-05-18T19:47:49.726Z,2.50
2019-05-18T19:50:17.827Z,2.37
2019-05-18T19:52:46.449Z,5.37
2019-05-18T19:55:14.557Z,3.13
2019-05-18T19:57:42.524Z,2.93
2019-05-18T20:00:11.253Z,3.03
2019-05-18T20:02:39.410Z,4.30
2019-05-18T20:05:09.183Z,3.20
2019-05-18T20:07:37.778Z,3.20
2019-05-18T20:10:09.528Z,3.50
2019-05-18T20:12:38.875Z,4.00
2019-05-18T20:15:09.580Z,4.20
2019-05-18T20:17:38.023Z,4.63
2019-05-18T20:20:06.586Z,4.20
2019-05-18T20:22:34.566Z,4.53
2019-05-18T20:25:02.960Z,9.90
2019-05-18T20:27:30.930Z,4.70
2019-05-18T20:29:59.042Z,4.53
2019-05-18T20:32:27.112Z,5.53
2019-05-18T20:34:55.285Z,5.47
2019-05-18T20:37:23.343Z,6.00
2019-05-18T20:39:51.818Z,4.90
2019-05-18T20:42:19.843Z,6.93
2019-05-18T20:44:47.925Z,7.90
2019-05-18T20:47:15.983Z,6.13
2019-05-18T20:49:44.210Z,6.50
2019-05-18T20:52:15.460Z,5.37
2019-05-18T20:54:43.504Z,5.27
2019-05-18T20:57:11.480Z,6.77
2019-05-18T20:59:39.668Z,5.23
2019-05-18T21:02:12.654Z,5.73
2019-05-18T21:04:40.801Z,5.87
2019-05-18T21:07:08.890Z,5.80
2019-05-18T21:09:37.131Z,6.87
2019-05-18T21:12:05.211Z,5.60
2019-05-18T21:14:33.263Z,4.80
2019-05-18T21:17:01.427Z,5.27
2019-05-18T21:19:29.841Z,7.90
2019-05-18T21:21:57.854Z,4.80
2019-05-18T21:24:25.945Z,4.83
2019-05-18T21:26:53.977Z,4.70
2019-05-18T21:29:22.031Z,4.80
2019-05-18T21:31:50.331Z,4.63
2019-05-18T21:34:18.978Z,4.57
2019-05-18T21:36:47.429Z,6.47
2019-05-18T21:39:15.514Z,4.97
2019-05-18T21:41:43.598Z,5.20
2019-05-18T21:44:16.871Z,5.63
2019-05-18T21:46:44.935Z,5.67
2019-05-18T21:49:13.022Z,5.23
2019-05-18T21:51:42.757Z,7.93
2019-05-18T21:54:10.989Z,6.57
2019-05-18T21:56:39.448Z,10.00
2019-05-18T21:59:11.644Z,7.90
2019-05-18T22:01:39.593Z,8.77
2019-05-18T22:04:08.374Z,10.20
2019-05-18T22:06:37.346Z,9.90
2019-05-18T22:09:06.718Z,8.33
2019-05-18T22:11:35.095Z,9.10
2019-05-18T22:14:05.084Z,8.63
2019-05-18T22:16:33.101Z,8.10
2019-05-18T22:19:03.249Z,8.43
2019-05-18T22:21:32.047Z,7.70
2019-05-18T22:24:00.460Z,7.87
2019-05-18T22:26:29.016Z,8.23
2019-05-18T22:28:58.094Z,7.43
2019-05-18T22:31:35.262Z,8.27
2019-05-18T22:34:04.243Z,7.37
2019-05-18T22:36:34.428Z,7.40
2019-05-18T22:39:05.656Z,8.90
2019-05-18T22:41:34.353Z,8.03
2019-05-18T22:44:02.666Z,8.50
2019-05-18T22:46:30.798Z,9.43
2019-05-18T22:48:58.908Z,8.20
2019-05-18T22:51:26.969Z,8.13
2019-05-18T22:53:55.920Z,7.40
2019-05-18T22:56:24.238Z,7.93
2019-05-18T22:58:52.641Z,8.17
2019-05-18T23:01:22.803Z,8.27
2019-05-18T23:03:51.911Z,9.80
2019-05-18T23:06:20.832Z,9.60
2019-05-18T23:08:48.843Z,9.10
2019-05-18T23:11:17.032Z,7.80
2019-05-18T23:13:45.638Z,8.27
2019-05-18T23:16:13.760Z,9.17
2019-05-18T23:18:56.479Z,10.13
2019-05-18T23:21:15.541Z,11.10
2019-05-18T23:23:43.798Z,10.30
2019-05-18T23:26:13.916Z,12.77
2019-05-18T23:28:44.847Z,12.10
2019-05-18T23:31:14.080Z,13.33
2019-05-18T23:33:42.285Z,13.13
2019-05-18T23:36:11.368Z,12.90
2019-05-18T23:38:39.446Z,12.10
2019-05-18T23:41:07.390Z,16.80
2019-05-18T23:43:35.358Z,12.70
2019-05-18T23:46:03.385Z,12.50
2019-05-18T23:48:31.377Z,12.60
2019-05-18T23:50:59.555Z,12.30
2019-05-18T23:53:27.456Z,14.03
2019-05-18T23:55:55.394Z,12.17
2019-05-18T23:58:23.310Z,8.60
